createdAt,value
2023-03-27T00:02:21.516Z,98546.88
2023-03-27T00:07:24.274Z,98541.78
2023-03-27T00:12:26.957Z,98537.39
2023-03-27T00:17:30.215Z,98535.84
2023-03-27T00:22:32.921Z,98532.56
2023-03-27T00:27:36.094Z,98533.32
2023-03-27T00:32:38.743Z,98539.27
2023-03-27T00:37:41.861Z,98529.30
2023-03-27T00:42:46.107Z,98532.11
2023-03-27T00:47:56.659Z,98528.31
2023-03-27T00:53:04.429Z,98527.73
2023-03-27T00:58:12.466Z,98526.42
2023-03-27T01:03:16.309Z,98519.33
2023-03-27T01:08:19.262Z,98523.35
2023-03-27T01:13:39.141Z,98523.78
2023-03-27T01:19:08.470Z,98513.51
2023-03-27T01:24:29.933Z,98514.50
2023-03-27T01:29:35.380Z,98522.85
2023-03-27T01:35:11.818Z,98527.20
2023-03-27T01:40:25.206Z,98529.05
2023-03-27T01:45:42.891Z,98534.44
2023-03-27T01:50:50.071Z,98539.77
2023-03-27T01:55:58.445Z,98541.30
2023-03-27T02:01:02.930Z,98549.15
2023-03-27T02:06:14.370Z,98561.49
2023-03-27T02:11:17.608Z,98568.80
2023-03-27T02:16:25.280Z,98576.56
2023-03-27T02:21:28.071Z,98585.86
2023-03-27T02:26:30.893Z,98592.22
2023-03-27T02:31:35.157Z,98594.86
2023-03-27T02:36:44.551Z,98596.32
2023-03-27T02:42:04.696Z,98591.98
2023-03-27T02:47:12.900Z,98592.91
2023-03-27T02:52:21.691Z,98592.52
2023-03-27T02:57:27.974Z,98602.02
2023-03-27T03:02:32.893Z,98608.02
2023-03-27T03:07:38.142Z,98608.94
2023-03-27T03:12:40.856Z,98614.58
2023-03-27T03:17:43.555Z,98613.65
2023-03-27T03:22:46.599Z,98612.45
2023-03-27T03:27:49.330Z,98621.73
2023-03-27T03:32:52.899Z,98624.88
2023-03-27T03:37:57.715Z,98626.11
2023-03-27T03:43:00.377Z,98625.98
2023-03-27T03:48:03.136Z,98629.55
2023-03-27T03:53:05.938Z,98634.51
2023-03-27T03:58:09.281Z,98636.77
2023-03-27T04:03:14.751Z,98635.34
2023-03-27T04:08:17.486Z,98637.69
2023-03-27T04:13:20.141Z,98653.80
2023-03-27T04:18:32.435Z,98658.74
2023-03-27T04:23:35.350Z,98655.70
2023-03-27T04:28:40.041Z,98656.46
2023-03-27T04:33:46.439Z,98654.38
2023-03-27T04:38:49.788Z,98648.98
2023-03-27T04:43:52.487Z,98648.42
2023-03-27T04:48:56.390Z,98651.27
2023-03-27T04:53:59.014Z,98645.95
2023-03-27T04:59:03.500Z,98651.93
2023-03-27T05:04:06.181Z,98654.70
2023-03-27T05:09:09.112Z,98651.82
2023-03-27T05:14:11.750Z,98654.71
2023-03-27T05:19:14.393Z,98650.89
2023-03-27T05:24:17.115Z,98654.21
2023-03-27T05:29:19.830Z,98658.34
2023-03-27T05:34:22.517Z,98670.34
2023-03-27T05:39:25.678Z,98681.42
2023-03-27T05:44:28.729Z,98688.73
2023-03-27T05:49:33.562Z,98692.67
2023-03-27T05:54:36.744Z,98690.14
2023-03-27T05:59:39.844Z,98699.77
2023-03-27T06:04:42.572Z,98703.39
2023-03-27T06:09:45.294Z,98710.59
2023-03-27T06:14:47.939Z,98717.98
2023-03-27T06:19:50.754Z,98727.89
2023-03-27T06:24:56.930Z,98746.36
2023-03-27T06:29:59.499Z,98753.23
2023-03-27T06:35:02.861Z,98763.20
2023-03-27T06:40:10.087Z,98766.73
2023-03-27T06:45:12.895Z,98779.10
2023-03-27T06:50:15.961Z,98788.67
2023-03-27T06:55:21.727Z,98792.31
2023-03-27T07:00:28.887Z,98796.85
2023-03-27T07:05:36.548Z,98797.70
2023-03-27T07:10:40.246Z,98812.03
2023-03-27T07:15:43.162Z,98810.73
2023-03-27T07:20:47.338Z,98818.46
2023-03-27T07:25:51.580Z,98817.95
2023-03-27T07:30:54.319Z,98824.03
2023-03-27T07:35:57.165Z,98824.09
2023-03-27T07:41:06.581Z,98822.48
2023-03-27T07:46:09.286Z,98825.73
2023-03-27T07:51:14.132Z,98825.99
2023-03-27T07:56:17.926Z,98824.48
2023-03-27T08:01:21.472Z,98834.29
2023-03-27T08:06:24.159Z,98833.58
2023-03-27T08:11:30.821Z,98843.15
2023-03-27T08:16:33.898Z,98856.88
2023-03-27T08:21:36.784Z,98858.11
2023-03-27T08:26:39.435Z,98864.36
2023-03-27T08:31:43.170Z,98871.76
2023-03-27T08:36:46.439Z,98877.98
2023-03-27T08:41:55.017Z,98873.19
2023-03-27T08:47:09.343Z,98872.02
2023-03-27T08:52:16.440Z,98878.30
2023-03-27T08:57:24.068Z,98879.42
2023-03-27T09:02:48.521Z,98886.27
2023-03-27T09:08:21.255Z,98878.70
2023-03-27T09:13:46.436Z,98883.02
2023-03-27T09:19:22.551Z,98891.43
2023-03-27T09:24:34.901Z,98899.91
2023-03-27T09:29:41.298Z,98904.23
2023-03-27T09:34:44.885Z,98911.14
2023-03-27T09:39:51.428Z,98919.00
2023-03-27T09:44:57.010Z,98920.77
2023-03-27T09:50:19.043Z,98925.08
2023-03-27T09:55:30.635Z,98940.30
2023-03-27T10:00:34.844Z,98939.64
2023-03-27T10:05:38.874Z,98962.71
2023-03-27T10:10:45.759Z,98962.41
2023-03-27T10:15:48.544Z,98970.73
2023-03-27T10:20:54.214Z,98973.29
2023-03-27T10:26:04.117Z,98975.39
2023-03-27T10:31:24.420Z,98974.37
2023-03-27T10:36:27.898Z,98987.84
2023-03-27T10:41:34.944Z,98997.05
2023-03-27T10:46:40.975Z,99003.70
2023-03-27T10:51:46.887Z,99013.09
2023-03-27T10:56:53.718Z,99028.11
2023-03-27T11:02:13.834Z,99029.20
2023-03-27T11:07:49.354Z,99031.69
2023-03-27T11:13:04.114Z,99050.85
2023-03-27T11:18:15.446Z,99058.68
2023-03-27T11:23:36.339Z,99078.38
2023-03-27T11:29:09.397Z,99089.21
2023-03-27T11:34:29.332Z,99103.46
2023-03-27T11:39:40.974Z,99110.04
2023-03-27T11:44:50.344Z,99120.14
2023-03-27T11:50:08.930Z,99129.75
2023-03-27T11:55:22.365Z,99142.44
2023-03-27T12:00:25.531Z,99143.40
2023-03-27T12:06:08.834Z,99144.80
2023-03-27T12:11:15.050Z,99151.77
2023-03-27T12:16:32.044Z,99154.29
2023-03-27T12:22:22.842Z,99158.10
2023-03-27T12:27:45.387Z,99163.86
2023-03-27T12:33:12.174Z,99169.84
2023-03-27T12:38:33.500Z,99176.55
2023-03-27T12:43:41.096Z,99172.94
2023-03-27T12:49:13.215Z,99183.09
2023-03-27T12:54:25.142Z,99193.81
2023-03-27T12:59:29.174Z,99200.48
2023-03-27T13:05:26.931Z,99208.14
2023-03-27T13:11:02.266Z,99213.56
2023-03-27T13:16:05.063Z,99213.11
2023-03-27T13:21:30.117Z,99227.77
2023-03-27T13:27:05.510Z,99234.34
2023-03-27T13:32:36.049Z,99238.92
2023-03-27T13:37:48.509Z,99241.46
2023-03-27T13:42:55.809Z,99238.92
2023-03-27T13:48:01.239Z,99230.09
2023-03-27T13:53:25.660Z,99242.56
2023-03-27T13:58:43.293Z,99263.08
2023-03-27T14:04:33.202Z,99278.91
2023-03-27T14:09:46.211Z,99294.89
2023-03-27T14:15:16.812Z,99299.27
2023-03-27T14:20:50.163Z,99306.45
2023-03-27T14:26:03.451Z,99314.14
2023-03-27T14:31:08.379Z,99316.30
2023-03-27T14:36:16.534Z,99334.44
2023-03-27T14:41:23.971Z,99334.52
2023-03-27T14:46:27.717Z,99343.05
2023-03-27T14:51:37.440Z,99366.71
2023-03-27T14:56:47.233Z,99375.70
2023-03-27T15:01:54.360Z,99382.34
2023-03-27T15:07:18.903Z,99389.11
2023-03-27T15:12:23.908Z,99401.66
2023-03-27T15:17:30.525Z,99404.90
2023-03-27T15:23:00.831Z,99424.02
2023-03-27T15:28:10.387Z,99424.48
2023-03-27T15:33:22.287Z,99425.96
2023-03-27T15:38:30.354Z,99438.63
2023-03-27T15:43:33.726Z,99449.50
2023-03-27T15:48:44.125Z,99463.86
2023-03-27T15:53:49.868Z,99473.81
2023-03-27T15:58:59.466Z,99479.67
2023-03-27T16:04:25.770Z,99489.08
2023-03-27T16:09:32.777Z,99498.95
2023-03-27T16:14:41.694Z,99502.61
2023-03-27T16:19:59.230Z,99509.07
2023-03-27T16:25:03.775Z,99510.88
2023-03-27T16:30:09.732Z,99520.99
2023-03-27T16:35:12.647Z,99527.59
2023-03-27T16:40:15.665Z,99533.52
2023-03-27T16:45:18.342Z,99539.59
2023-03-27T16:50:24.529Z,99538.75
2023-03-27T16:55:27.453Z,99542.35
2023-03-27T17:00:31.429Z,99551.05
2023-03-27T17:05:34.367Z,99553.55
2023-03-27T17:10:37.038Z,99560.65
2023-03-27T17:15:40.313Z,99556.60
2023-03-27T17:20:43.246Z,99560.42
2023-03-27T17:25:47.246Z,99562.00
2023-03-27T17:31:03.380Z,99561.86
2023-03-27T17:36:13.013Z,99565.14
2023-03-27T17:41:17.443Z,99567.20
2023-03-27T17:46:20.229Z,99568.95
2023-03-27T17:51:24.465Z,99574.41
2023-03-27T17:56:27.392Z,99576.31
2023-03-27T18:01:30.112Z,99580.77
2023-03-27T18:06:33.089Z,99587.09
2023-03-27T18:11:35.808Z,99589.66
2023-03-27T18:16:38.912Z,99592.39
2023-03-27T18:21:42.393Z,99597.87
2023-03-27T18:26:45.506Z,99599.90
2023-03-27T18:31:48.707Z,99604.34
2023-03-27T18:36:52.714Z,99606.21
2023-03-27T18:41:58.660Z,99607.26
2023-03-27T18:47:02.631Z,99607.58
2023-03-27T18:52:05.461Z,99614.06
2023-03-27T18:57:08.504Z,99608.91
2023-03-27T19:02:14.254Z,99610.44
2023-03-27T19:07:17.492Z,99607.84
2023-03-27T19:12:20.895Z,99606.44
2023-03-27T19:17:24.085Z,99607.42
2023-03-27T19:22:26.949Z,99612.33
2023-03-27T19:27:38.912Z,99610.60
2023-03-27T19:32:42.203Z,99612.65
2023-03-27T19:37:45.342Z,99615.17
2023-03-27T19:42:48.306Z,99609.15
2023-03-27T19:47:51.550Z,99600.06
2023-03-27T19:53:07.657Z,99593.70
2023-03-27T19:58:11.604Z,99587.17
2023-03-27T20:03:16.623Z,99581.66
2023-03-27T20:08:21.439Z,99581.27
2023-03-27T20:13:24.117Z,99583.27
2023-03-27T20:18:32.554Z,99581.83
2023-03-27T20:23:37.652Z,99579.00
2023-03-27T20:28:40.287Z,99574.96
2023-03-27T20:33:43.341Z,99568.40
2023-03-27T20:38:46.359Z,99558.95
2023-03-27T20:43:51.129Z,99555.46
2023-03-27T20:48:54.911Z,99552.02
2023-03-27T20:53:58.396Z,99546.73
2023-03-27T20:59:01.050Z,99552.20
2023-03-27T21:04:03.681Z,99547.25
2023-03-27T21:09:07.464Z,99547.06
2023-03-27T21:14:10.167Z,99536.60
2023-03-27T21:19:13.177Z,99532.60
2023-03-27T21:24:16.163Z,99533.77
2023-03-27T21:29:20.844Z,99527.83
2023-03-27T21:34:23.812Z,99523.11
2023-03-27T21:39:26.499Z,99521.27
2023-03-27T21:44:29.445Z,99521.92
2023-03-27T21:49:32.177Z,99516.95
2023-03-27T21:54:35.599Z,99511.45
2023-03-27T21:59:38.219Z,99510.52
2023-03-27T22:04:40.907Z,99517.66
2023-03-27T22:09:44.438Z,99523.30
2023-03-27T22:14:47.071Z,99522.83
2023-03-27T22:19:49.743Z,99525.08
2023-03-27T22:24:52.509Z,99521.32
2023-03-27T22:29:55.239Z,99516.18
2023-03-27T22:34:57.870Z,99520.58
2023-03-27T22:40:00.770Z,99520.33
2023-03-27T22:45:07.015Z,99517.89
2023-03-27T22:50:09.859Z,99515.42
2023-03-27T22:55:12.465Z,99509.45
2023-03-27T23:00:15.854Z,99509.67
2023-03-27T23:05:18.517Z,99505.11
2023-03-27T23:10:21.272Z,99502.05
2023-03-27T23:15:30.259Z,99500.14
2023-03-27T23:20:33.456Z,99497.86
2023-03-27T23:25:36.103Z,99492.50
2023-03-27T23:30:39.886Z,99493.97
2023-03-27T23:35:42.576Z,99493.61
2023-03-27T23:40:45.454Z,99497.05
2023-03-27T23:45:48.124Z,99491.48
2023-03-27T23:50:52.019Z,99494.20
2023-03-27T23:55:56.214Z,99491.77
